sensor_id;sensor_type;location;lat;lon;timestamp;pressure;altitude;pressure_sealevel;temperature;humidity
69955;BME280;57279;55.912;37.490;2023-03-01T00:02:05;98471.38;;;-5.17;54.64
69955;BME280;57279;55.912;37.490;2023-03-01T00:04:32;98458.22;;;-5.17;55.22
69955;BME280;57279;55.912;37.490;2023-03-01T00:06:57;98458.13;;;-5.23;55.59
69955;BME280;57279;55.912;37.490;2023-03-01T00:09:23;98457.75;;;-5.20;55.23
69955;BME280;57279;55.912;37.490;2023-03-01T00:11:49;98450.84;;;-5.06;55.83
69955;BME280;57279;55.912;37.490;2023-03-01T00:14:15;98448.03;;;-5.20;55.51
69955;BME280;57279;55.912;37.490;2023-03-01T00:16:44;98448.31;;;-5.15;55.72
69955;BME280;57279;55.912;37.490;2023-03-01T00:19:18;98442.31;;;-5.08;55.31
69955;BME280;57279;55.912;37.490;2023-03-01T00:21:44;98447.31;;;-5.28;55.33
69955;BME280;57279;55.912;37.490;2023-03-01T00:24:10;98452.13;;;-5.32;55.00
69955;BME280;57279;55.912;37.490;2023-03-01T00:26:36;98444.50;;;-5.42;55.34
69955;BME280;57279;55.912;37.490;2023-03-01T00:29:02;98444.13;;;-5.54;55.19
69955;BME280;57279;55.912;37.490;2023-03-01T00:31:30;98449.84;;;-5.50;56.20
69955;BME280;57279;55.912;37.490;2023-03-01T00:33:58;98452.28;;;-5.34;55.26
69955;BME280;57279;55.912;37.490;2023-03-01T00:36:27;98455.38;;;-5.45;55.40
69955;BME280;57279;55.912;37.490;2023-03-01T00:38:54;98454.22;;;-5.42;55.29
69955;BME280;57279;55.912;37.490;2023-03-01T00:41:20;98448.31;;;-5.30;55.36
69955;BME280;57279;55.912;37.490;2023-03-01T00:43:49;98452.09;;;-5.47;55.40
69955;BME280;57279;55.912;37.490;2023-03-01T00:46:17;98444.47;;;-5.57;55.36
69955;BME280;57279;55.912;37.490;2023-03-01T00:48:43;98449.47;;;-5.47;55.67
69955;BME280;57279;55.912;37.490;2023-03-01T00:51:18;98445.13;;;-5.40;55.43
69955;BME280;57279;55.912;37.490;2023-03-01T00:53:45;98439.75;;;-5.46;55.24
69955;BME280;57279;55.912;37.490;2023-03-01T00:56:13;98442.03;;;-5.43;55.06
69955;BME280;57279;55.912;37.490;2023-03-01T00:58:39;98440.84;;;-5.41;54.86
69955;BME280;57279;55.912;37.490;2023-03-01T01:01:14;98441.41;;;-5.31;55.57
69955;BME280;57279;55.912;37.490;2023-03-01T01:03:51;98432.00;;;-5.25;55.16
69955;BME280;57279;55.912;37.490;2023-03-01T01:06:25;98428.09;;;-5.29;55.18
69955;BME280;57279;55.912;37.490;2023-03-01T01:08:52;98427.97;;;-5.36;55.03
69955;BME280;57279;55.912;37.490;2023-03-01T01:11:19;98431.88;;;-5.32;55.29
69955;BME280;57279;55.912;37.490;2023-03-01T01:13:46;98437.50;;;-5.50;55.02
69955;BME280;57279;55.912;37.490;2023-03-01T01:16:13;98430.50;;;-5.57;55.25
69955;BME280;57279;55.912;37.490;2023-03-01T01:18:39;98433.78;;;-5.55;55.39
69955;BME280;57279;55.912;37.490;2023-03-01T01:21:15;98435.03;;;-5.51;55.44
69955;BME280;57279;55.912;37.490;2023-03-01T01:23:42;98442.75;;;-5.50;55.57
69955;BME280;57279;55.912;37.490;2023-03-01T01:26:09;98444.72;;;-5.66;55.87
69955;BME280;57279;55.912;37.490;2023-03-01T01:28:36;98437.00;;;-5.68;55.82
69955;BME280;57279;55.912;37.490;2023-03-01T01:31:02;98448.53;;;-5.69;56.43
69955;BME280;57279;55.912;37.490;2023-03-01T01:33:28;98447.78;;;-5.78;56.13
69955;BME280;57279;55.912;37.490;2023-03-01T01:35:53;98440.53;;;-5.76;56.89
69955;BME280;57279;55.912;37.490;2023-03-01T01:38:19;98441.63;;;-5.70;56.34
69955;BME280;57279;55.912;37.490;2023-03-01T01:40:46;98449.84;;;-5.73;56.50
69955;BME280;57279;55.912;37.490;2023-03-01T01:45:44;98442.97;;;-5.74;56.88
69955;BME280;57279;55.912;37.490;2023-03-01T01:48:13;98445.13;;;-5.78;56.62
69955;BME280;57279;55.912;37.490;2023-03-01T01:50:40;98445.59;;;-5.74;56.78
69955;BME280;57279;55.912;37.490;2023-03-01T01:53:10;98441.34;;;-5.75;57.16
69955;BME280;57279;55.912;37.490;2023-03-01T01:55:42;98442.28;;;-5.91;57.16
69955;BME280;57279;55.912;37.490;2023-03-01T01:58:09;98441.31;;;-5.90;57.52
69955;BME280;57279;55.912;37.490;2023-03-01T02:00:36;98450.00;;;-5.90;57.28
69955;BME280;57279;55.912;37.490;2023-03-01T02:03:14;98447.28;;;-5.96;57.42
69955;BME280;57279;55.912;37.490;2023-03-01T02:06:03;98447.00;;;-6.01;57.48
69955;BME280;57279;55.912;37.490;2023-03-01T02:08:32;98449.72;;;-5.95;57.54
69955;BME280;57279;55.912;37.490;2023-03-01T02:10:59;98452.34;;;-5.95;57.61
69955;BME280;57279;55.912;37.490;2023-03-01T02:13:31;98456.19;;;-5.97;57.47
69955;BME280;57279;55.912;37.490;2023-03-01T02:15:56;98458.41;;;-6.09;57.95
69955;BME280;57279;55.912;37.490;2023-03-01T02:18:23;98443.22;;;-5.99;58.22
69955;BME280;57279;55.912;37.490;2023-03-01T02:21:17;98460.56;;;-6.13;58.21
69955;BME280;57279;55.912;37.490;2023-03-01T02:23:48;98457.53;;;-6.01;58.45
69955;BME280;57279;55.912;37.490;2023-03-01T02:28:43;98452.31;;;-6.10;58.62
69955;BME280;57279;55.912;37.490;2023-03-01T02:31:11;98455.88;;;-6.02;58.57
69955;BME280;57279;55.912;37.490;2023-03-01T02:33:58;98457.28;;;-6.15;58.58
69955;BME280;57279;55.912;37.490;2023-03-01T02:36:30;98452.94;;;-6.07;58.59
69955;BME280;57279;55.912;37.490;2023-03-01T02:38:59;98455.81;;;-6.17;58.71
69955;BME280;57279;55.912;37.490;2023-03-01T02:41:28;98445.94;;;-6.15;58.74
69955;BME280;57279;55.912;37.490;2023-03-01T02:43:56;98463.53;;;-6.16;58.66
69955;BME280;57279;55.912;37.490;2023-03-01T02:46:25;98461.22;;;-6.19;58.90
69955;BME280;57279;55.912;37.490;2023-03-01T02:48:56;98459.94;;;-6.23;58.87
69955;BME280;57279;55.912;37.490;2023-03-01T02:56:38;98466.44;;;-6.34;59.26
69955;BME280;57279;55.912;37.490;2023-03-01T02:59:05;98460.59;;;-6.21;59.35
69955;BME280;57279;55.912;37.490;2023-03-01T03:01:31;98462.19;;;-6.12;59.28
69955;BME280;57279;55.912;37.490;2023-03-01T03:04:11;98462.56;;;-6.15;59.21
69955;BME280;57279;55.912;37.490;2023-03-01T03:06:37;98463.59;;;-6.01;59.15
69955;BME280;57279;55.912;37.490;2023-03-01T03:09:04;98467.34;;;-5.95;58.75
69955;BME280;57279;55.912;37.490;2023-03-01T03:11:30;98475.56;;;-5.98;58.69
69955;BME280;57279;55.912;37.490;2023-03-01T03:13:56;98469.34;;;-6.05;58.50
69955;BME280;57279;55.912;37.490;2023-03-01T03:16:24;98473.81;;;-6.06;58.52
69955;BME280;57279;55.912;37.490;2023-03-01T03:18:50;98469.91;;;-6.10;58.92
69955;BME280;57279;55.912;37.490;2023-03-01T03:21:16;98476.91;;;-6.25;59.04
69955;BME280;57279;55.912;37.490;2023-03-01T03:23:43;98476.09;;;-6.26;59.41
69955;BME280;57279;55.912;37.490;2023-03-01T03:26:08;98475.72;;;-6.23;59.33
69955;BME280;57279;55.912;37.490;2023-03-01T03:28:35;98475.72;;;-6.23;59.34
69955;BME280;57279;55.912;37.490;2023-03-01T03:31:00;98474.81;;;-6.30;59.51
69955;BME280;57279;55.912;37.490;2023-03-01T03:33:30;98479.09;;;-6.37;59.72
69955;BME280;57279;55.912;37.490;2023-03-01T03:35:56;98480.06;;;-6.38;59.99
69955;BME280;57279;55.912;37.490;2023-03-01T03:38:22;98472.09;;;-6.45;60.08
69955;BME280;57279;55.912;37.490;2023-03-01T03:40:50;98485.72;;;-6.50;60.47
69955;BME280;57279;55.912;37.490;2023-03-01T03:43:21;98485.63;;;-6.33;60.39
69955;BME280;57279;55.912;37.490;2023-03-01T03:45:49;98479.19;;;-6.22;59.98
69955;BME280;57279;55.912;37.490;2023-03-01T03:48:16;98479.53;;;-6.25;59.87
69955;BME280;57279;55.912;37.490;2023-03-01T03:50:41;98475.44;;;-6.28;60.05
69955;BME280;57279;55.912;37.490;2023-03-01T03:53:12;98478.41;;;-6.31;60.76
69955;BME280;57279;55.912;37.490;2023-03-01T03:55:38;98481.34;;;-6.26;60.48
69955;BME280;57279;55.912;37.490;2023-03-01T03:58:08;98480.06;;;-6.30;60.17
69955;BME280;57279;55.912;37.490;2023-03-01T04:00:41;98479.56;;;-6.34;60.35
69955;BME280;57279;55.912;37.490;2023-03-01T04:03:07;98483.97;;;-6.26;61.22
69955;BME280;57279;55.912;37.490;2023-03-01T04:05:33;98493.34;;;-6.32;60.17
69955;BME280;57279;55.912;37.490;2023-03-01T04:07:59;98493.91;;;-6.44;60.23
69955;BME280;57279;55.912;37.490;2023-03-01T04:10:33;98498.31;;;-6.37;60.88
69955;BME280;57279;55.912;37.490;2023-03-01T04:12:59;98494.69;;;-6.36;60.82
69955;BME280;57279;55.912;37.490;2023-03-01T04:15:26;98503.56;;;-6.37;60.86
69955;BME280;57279;55.912;37.490;2023-03-01T04:17:53;98501.44;;;-6.41;61.05
69955;BME280;57279;55.912;37.490;2023-03-01T04:20:25;98497.41;;;-6.52;60.73
69955;BME280;57279;55.912;37.490;2023-03-01T04:25:18;98495.31;;;-6.65;61.49
69955;BME280;57279;55.912;37.490;2023-03-01T04:27:44;98499.75;;;-6.65;62.13
69955;BME280;57279;55.912;37.490;2023-03-01T04:30:10;98500.72;;;-6.58;61.80
69955;BME280;57279;55.912;37.490;2023-03-01T04:32:36;98500.72;;;-6.58;61.78
69955;BME280;57279;55.912;37.490;2023-03-01T04:35:01;98498.09;;;-6.58;61.38
69955;BME280;57279;55.912;37.490;2023-03-01T04:37:28;98504.16;;;-6.58;61.79
69955;BME280;57279;55.912;37.490;2023-03-01T04:39:55;98497.25;;;-6.59;61.71
69955;BME280;57279;55.912;37.490;2023-03-01T04:42:20;98504.00;;;-6.64;61.87
69955;BME280;57279;55.912;37.490;2023-03-01T04:44:46;98503.72;;;-6.78;62.13
69955;BME280;57279;55.912;37.490;2023-03-01T04:47:14;98508.84;;;-6.84;62.24
69955;BME280;57279;55.912;37.490;2023-03-01T04:49:39;98510.94;;;-6.80;62.24
69955;BME280;57279;55.912;37.490;2023-03-01T04:52:05;98513.28;;;-6.85;62.14
69955;BME280;57279;55.912;37.490;2023-03-01T04:54:32;98513.28;;;-6.85;62.35
69955;BME280;57279;55.912;37.490;2023-03-01T04:56:58;98505.84;;;-6.73;62.28
69955;BME280;57279;55.912;37.490;2023-03-01T04:59:24;98513.56;;;-6.80;62.51
69955;BME280;57279;55.912;37.490;2023-03-01T05:01:54;98512.72;;;-6.64;62.06
69955;BME280;57279;55.912;37.490;2023-03-01T05:04:22;98519.91;;;-6.58;61.90
69955;BME280;57279;55.912;37.490;2023-03-01T05:06:48;98514.31;;;-6.55;61.78
69955;BME280;57279;55.912;37.490;2023-03-01T05:09:14;98515.91;;;-6.45;61.75
69955;BME280;57279;55.912;37.490;2023-03-01T05:11:40;98519.00;;;-6.42;61.38
69955;BME280;57279;55.912;37.490;2023-03-01T05:14:07;98523.28;;;-6.41;61.63
69955;BME280;57279;55.912;37.490;2023-03-01T05:16:33;98521.66;;;-6.50;61.59
69955;BME280;57279;55.912;37.490;2023-03-01T05:18:59;98520.88;;;-6.51;61.65
69955;BME280;57279;55.912;37.490;2023-03-01T05:21:25;98523.59;;;-6.36;61.52
69955;BME280;57279;55.912;37.490;2023-03-01T05:23:51;98528.66;;;-6.34;61.27
69955;BME280;57279;55.912;37.490;2023-03-01T05:26:18;98525.22;;;-6.35;61.57
69955;BME280;57279;55.912;37.490;2023-03-01T05:28:44;98531.28;;;-6.34;61.23
69955;BME280;57279;55.912;37.490;2023-03-01T05:31:10;98535.88;;;-6.28;61.36
69955;BME280;57279;55.912;37.490;2023-03-01T05:33:40;98541.94;;;-6.27;61.15
69955;BME280;57279;55.912;37.490;2023-03-01T05:36:07;98538.31;;;-6.26;61.05
69955;BME280;57279;55.912;37.490;2023-03-01T05:38:33;98547.53;;;-6.31;61.18
69955;BME280;57279;55.912;37.490;2023-03-01T05:40:59;98554.44;;;-6.30;61.43
69955;BME280;57279;55.912;37.490;2023-03-01T05:43:25;98546.97;;;-6.18;61.38
69955;BME280;57279;55.912;37.490;2023-03-01T05:45:51;98550.19;;;-6.07;61.02
69955;BME280;57279;55.912;37.490;2023-03-01T05:48:17;98543.25;;;-6.00;60.81
69955;BME280;57279;55.912;37.490;2023-03-01T05:50:45;98553.59;;;-5.99;60.68
69955;BME280;57279;55.912;37.490;2023-03-01T05:53:18;98565.38;;;-5.95;60.24
69955;BME280;57279;55.912;37.490;2023-03-01T05:55:45;98567.44;;;-5.82;60.42
69955;BME280;57279;55.912;37.490;2023-03-01T05:58:17;98566.63;;;-5.82;60.17
69955;BME280;57279;55.912;37.490;2023-03-01T06:00:44;98580.44;;;-5.89;60.32
69955;BME280;57279;55.912;37.490;2023-03-01T06:03:12;98568.19;;;-5.96;60.22
69955;BME280;57279;55.912;37.490;2023-03-01T06:05:39;98572.47;;;-5.72;60.35
69955;BME280;57279;55.912;37.490;2023-03-01T06:08:06;98574.03;;;-5.86;60.31
69955;BME280;57279;55.912;37.490;2023-03-01T06:10:32;98569.28;;;-5.91;60.54
69955;BME280;57279;55.912;37.490;2023-03-01T06:12:58;98568.09;;;-6.03;60.25
69955;BME280;57279;55.912;37.490;2023-03-01T06:15:24;98569.06;;;-6.04;60.95
69955;BME280;57279;55.912;37.490;2023-03-01T06:17:50;98579.31;;;-5.94;60.72
69955;BME280;57279;55.912;37.490;2023-03-01T06:20:19;98571.41;;;-5.86;60.43
69955;BME280;57279;55.912;37.490;2023-03-01T06:22:45;98584.09;;;-5.66;60.15
69955;BME280;57279;55.912;37.490;2023-03-01T06:25:14;98585.63;;;-5.49;59.98
69955;BME280;57279;55.912;37.490;2023-03-01T06:27:41;98576.44;;;-5.30;59.48
69955;BME280;57279;55.912;37.490;2023-03-01T06:30:07;98581.19;;;-5.25;59.43
69955;BME280;57279;55.912;37.490;2023-03-01T06:32:36;98572.56;;;-5.19;59.20
69955;BME280;57279;55.912;37.490;2023-03-01T06:35:02;98583.81;;;-5.25;58.86
69955;BME280;57279;55.912;37.490;2023-03-01T06:37:28;98579.00;;;-5.45;59.17
69955;BME280;57279;55.912;37.490;2023-03-01T06:39:54;98579.41;;;-5.10;59.82
69955;BME280;57279;55.912;37.490;2023-03-01T06:42:19;98578.81;;;-5.20;58.80
69955;BME280;57279;55.912;37.490;2023-03-01T06:44:45;98589.09;;;-5.11;58.66
69955;BME280;57279;55.912;37.490;2023-03-01T06:47:11;98593.28;;;-5.01;58.36
69955;BME280;57279;55.912;37.490;2023-03-01T06:49:37;98582.72;;;-5.16;58.48
69955;BME280;57279;55.912;37.490;2023-03-01T06:52:02;98586.28;;;-5.09;58.77
69955;BME280;57279;55.912;37.490;2023-03-01T06:54:28;98588.88;;;-4.86;58.67
69955;BME280;57279;55.912;37.490;2023-03-01T06:56:54;98590.22;;;-4.90;58.72
69955;BME280;57279;55.912;37.490;2023-03-01T06:59:20;98588.09;;;-4.72;58.98
69955;BME280;57279;55.912;37.490;2023-03-01T07:01:45;98592.28;;;-4.62;58.21
69955;BME280;57279;55.912;37.490;2023-03-01T07:04:12;98587.72;;;-4.54;58.02
69955;BME280;57279;55.912;37.490;2023-03-01T07:06:38;98597.28;;;-4.53;57.88
69955;BME280;57279;55.912;37.490;2023-03-01T07:09:03;98600.53;;;-4.65;58.29
69955;BME280;57279;55.912;37.490;2023-03-01T07:11:29;98617.44;;;-4.60;58.03
69955;BME280;57279;55.912;37.490;2023-03-01T07:13:55;98611.84;;;-4.80;58.70
69955;BME280;57279;55.912;37.490;2023-03-01T07:16:21;98605.72;;;-4.72;58.50
69955;BME280;57279;55.912;37.490;2023-03-01T07:18:47;98610.50;;;-4.61;58.39
69955;BME280;57279;55.912;37.490;2023-03-01T07:21:14;98618.63;;;-4.33;58.80
69955;BME280;57279;55.912;37.490;2023-03-01T07:23:40;98620.63;;;-4.20;58.71
69955;BME280;57279;55.912;37.490;2023-03-01T07:26:06;98636.88;;;-4.16;58.52
69955;BME280;57279;55.912;37.490;2023-03-01T07:28:32;98630.34;;;-4.05;58.37
69955;BME280;57279;55.912;37.490;2023-03-01T07:31:05;98638.16;;;-3.97;58.49
69955;BME280;57279;55.912;37.490;2023-03-01T07:33:31;98631.63;;;-4.16;58.93
69955;BME280;57279;55.912;37.490;2023-03-01T07:36:01;98632.13;;;-4.06;58.57
69955;BME280;57279;55.912;37.490;2023-03-01T07:38:28;98631.78;;;-4.18;59.22
69955;BME280;57279;55.912;37.490;2023-03-01T07:40:58;98647.97;;;-4.21;59.20
69955;BME280;57279;55.912;37.490;2023-03-01T07:43:24;98639.53;;;-4.16;59.72
69955;BME280;57279;55.912;37.490;2023-03-01T07:45:50;98648.97;;;-4.07;59.28
69955;BME280;57279;55.912;37.490;2023-03-01T07:48:15;98648.34;;;-3.94;59.12
69955;BME280;57279;55.912;37.490;2023-03-01T07:50:41;98648.88;;;-3.99;59.43
69955;BME280;57279;55.912;37.490;2023-03-01T07:53:07;98650.53;;;-3.98;59.68
69955;BME280;57279;55.912;37.490;2023-03-01T07:55:32;98639.88;;;-3.89;59.73
69955;BME280;57279;55.912;37.490;2023-03-01T07:57:58;98634.41;;;-3.88;59.38
69955;BME280;57279;55.912;37.490;2023-03-01T08:00:24;98631.31;;;-3.77;59.46
69955;BME280;57279;55.912;37.490;2023-03-01T08:02:49;98631.59;;;-3.86;59.77
69955;BME280;57279;55.912;37.490;2023-03-01T08:05:15;98633.53;;;-3.74;59.63
69955;BME280;57279;55.912;37.490;2023-03-01T08:07:41;98641.09;;;-3.70;59.46
69955;BME280;57279;55.912;37.490;2023-03-01T08:10:07;98644.44;;;-3.62;59.01
69955;BME280;57279;55.912;37.490;2023-03-01T08:12:33;98644.38;;;-3.68;58.85
69955;BME280;57279;55.912;37.490;2023-03-01T08:14:59;98641.69;;;-3.90;58.94
69955;BME280;57279;55.912;37.490;2023-03-01T08:17:24;98639.84;;;-3.75;59.59
69955;BME280;57279;55.912;37.490;2023-03-01T08:19:50;98658.94;;;-3.72;59.32
69955;BME280;57279;55.912;37.490;2023-03-01T08:22:16;98661.41;;;-3.86;58.70
69955;BME280;57279;55.912;37.490;2023-03-01T08:24:41;98665.03;;;-3.87;59.34
69955;BME280;57279;55.912;37.490;2023-03-01T08:27:07;98659.59;;;-3.85;58.44
69955;BME280;57279;55.912;37.490;2023-03-01T08:29:34;98676.03;;;-3.68;58.66
69955;BME280;57279;55.912;37.490;2023-03-01T08:32:01;98672.50;;;-3.76;58.16
69955;BME280;57279;55.912;37.490;2023-03-01T08:34:27;98680.56;;;-3.77;58.93
69955;BME280;57279;55.912;37.490;2023-03-01T08:36:52;98676.97;;;-3.91;58.61
69955;BME280;57279;55.912;37.490;2023-03-01T08:39:19;98682.41;;;-3.93;58.68
69955;BME280;57279;55.912;37.490;2023-03-01T08:41:46;98682.28;;;-3.69;59.05
69955;BME280;57279;55.912;37.490;2023-03-01T08:44:13;98688.31;;;-3.90;59.07
69955;BME280;57279;55.912;37.490;2023-03-01T08:46:42;98680.97;;;-3.95;58.75
69955;BME280;57279;55.912;37.490;2023-03-01T08:49:16;98688.59;;;-3.70;58.70
69955;BME280;57279;55.912;37.490;2023-03-01T08:51:43;98680.91;;;-3.50;58.47
69955;BME280;57279;55.912;37.490;2023-03-01T08:54:18;98677.06;;;-3.33;58.35
69955;BME280;57279;55.912;37.490;2023-03-01T08:56:44;98678.66;;;-3.32;57.59
69955;BME280;57279;55.912;37.490;2023-03-01T08:59:11;98685.22;;;-3.64;57.37
69955;BME280;57279;55.912;37.490;2023-03-01T09:01:37;98693.69;;;-3.84;58.26
69955;BME280;57279;55.912;37.490;2023-03-01T09:04:03;98693.34;;;-4.10;58.83
69955;BME280;57279;55.912;37.490;2023-03-01T09:06:32;98684.34;;;-4.16;59.88
69955;BME280;57279;55.912;37.490;2023-03-01T09:08:59;98678.34;;;-3.95;59.67
69955;BME280;57279;55.912;37.490;2023-03-01T09:11:24;98682.13;;;-3.83;59.27
69955;BME280;57279;55.912;37.490;2023-03-01T09:13:50;98682.06;;;-3.75;59.84
69955;BME280;57279;55.912;37.490;2023-03-01T09:16:18;98675.75;;;-3.74;59.01
69955;BME280;57279;55.912;37.490;2023-03-01T09:18:48;98680.69;;;-3.85;59.03
69955;BME280;57279;55.912;37.490;2023-03-01T09:21:15;98682.34;;;-3.84;59.59
69955;BME280;57279;55.912;37.490;2023-03-01T09:23:43;98695.81;;;-3.94;59.07
69955;BME280;57279;55.912;37.490;2023-03-01T09:26:15;98676.91;;;-3.98;59.08
69955;BME280;57279;55.912;37.490;2023-03-01T09:28:42;98687.16;;;-4.03;59.03
69955;BME280;57279;55.912;37.490;2023-03-01T09:31:09;98683.53;;;-4.17;59.52
69955;BME280;57279;55.912;37.490;2023-03-01T09:33:39;98684.44;;;-4.24;59.94
69955;BME280;57279;55.912;37.490;2023-03-01T09:36:11;98674.31;;;-4.21;60.19
69955;BME280;57279;55.912;37.490;2023-03-01T09:38:37;98680.06;;;-4.02;59.82
69955;BME280;57279;55.912;37.490;2023-03-01T09:41:10;98674.22;;;-3.83;59.59
69955;BME280;57279;55.912;37.490;2023-03-01T09:43:53;98683.03;;;-3.61;59.26
69955;BME280;57279;55.912;37.490;2023-03-01T09:46:22;98686.13;;;-3.36;58.75
69955;BME280;57279;55.912;37.490;2023-03-01T09:48:52;98679.81;;;-3.20;58.38
69955;BME280;57279;55.912;37.490;2023-03-01T09:51:32;98692.00;;;-2.97;57.55
69955;BME280;57279;55.912;37.490;2023-03-01T09:54:01;98693.72;;;-2.89;57.58
69955;BME280;57279;55.912;37.490;2023-03-01T09:56:33;98685.16;;;-2.70;56.52
69955;BME280;57279;55.912;37.490;2023-03-01T10:02:04;98691.09;;;-2.61;56.52
69955;BME280;57279;55.912;37.490;2023-03-01T10:04:54;98691.00;;;-2.75;55.85
69955;BME280;57279;55.912;37.490;2023-03-01T10:07:40;98725.97;;;-2.94;55.33
69955;BME280;57279;55.912;37.490;2023-03-01T10:10:22;98702.88;;;-3.07;55.99
69955;BME280;57279;55.912;37.490;2023-03-01T10:12:53;98695.94;;;-2.93;56.21
69955;BME280;57279;55.912;37.490;2023-03-01T10:15:29;98701.72;;;-2.83;56.88
69955;BME280;57279;55.912;37.490;2023-03-01T10:18:03;98706.31;;;-2.70;56.44
69955;BME280;57279;55.912;37.490;2023-03-01T10:20:54;98701.56;;;-2.53;55.78
69955;BME280;57279;55.912;37.490;2023-03-01T10:23:26;98694.16;;;-2.36;55.54
69955;BME280;57279;55.912;37.490;2023-03-01T10:26:53;98701.22;;;-2.15;55.41
69955;BME280;57279;55.912;37.490;2023-03-01T10:29:12;98697.19;;;-2.04;54.89
69955;BME280;57279;55.912;37.490;2023-03-01T10:31:46;98691.91;;;-2.04;54.63
69955;BME280;57279;55.912;37.490;2023-03-01T10:36:39;98693.56;;;-2.31;54.22
69955;BME280;57279;55.912;37.490;2023-03-01T10:39:13;98684.97;;;-2.40;53.97
69955;BME280;57279;55.912;37.490;2023-03-01T10:41:58;98685.03;;;-2.33;54.65
69955;BME280;57279;55.912;37.490;2023-03-01T10:44:46;98689.50;;;-2.34;54.03
69955;BME280;57279;55.912;37.490;2023-03-01T10:49:52;98700.09;;;-2.27;53.79
69955;BME280;57279;55.912;37.490;2023-03-01T10:52:21;98689.50;;;-2.34;53.72
69955;BME280;57279;55.912;37.490;2023-03-01T10:54:56;98704.69;;;-2.43;53.28
69955;BME280;57279;55.912;37.490;2023-03-01T10:57:34;98691.44;;;-2.49;53.70
69955;BME280;57279;55.912;37.490;2023-03-01T11:00:23;98684.50;;;-2.50;54.31
69955;BME280;57279;55.912;37.490;2023-03-01T11:05:25;98685.84;;;-2.33;53.80
69955;BME280;57279;55.912;37.490;2023-03-01T11:07:57;98690.25;;;-2.40;53.65
69955;BME280;57279;55.912;37.490;2023-03-01T11:10:26;98687.81;;;-2.42;53.33
69955;BME280;57279;55.912;37.490;2023-03-01T11:12:53;98689.53;;;-2.56;53.14
69955;BME280;57279;55.912;37.490;2023-03-01T11:15:27;98682.66;;;-2.50;53.46
69955;BME280;57279;55.912;37.490;2023-03-01T11:17:54;98691.66;;;-2.44;53.50
69955;BME280;57279;55.912;37.490;2023-03-01T11:20:32;98705.44;;;-2.49;53.59
69955;BME280;57279;55.912;37.490;2023-03-01T11:23:03;98697.56;;;-2.42;53.75
69955;BME280;57279;55.912;37.490;2023-03-01T11:25:35;98697.09;;;-2.52;53.11
69955;BME280;57279;55.912;37.490;2023-03-01T11:28:04;98698.16;;;-2.47;53.50
69955;BME280;57279;55.912;37.490;2023-03-01T11:30:35;98700.00;;;-2.41;52.60
69955;BME280;57279;55.912;37.490;2023-03-01T11:33:13;98718.88;;;-2.22;52.63
69955;BME280;57279;55.912;37.490;2023-03-01T11:35:47;98699.41;;;-2.43;52.53
69955;BME280;57279;55.912;37.490;2023-03-01T11:38:20;98695.34;;;-2.39;52.92
69955;BME280;57279;55.912;37.490;2023-03-01T11:40:54;98702.13;;;-2.29;53.04
69955;BME280;57279;55.912;37.490;2023-03-01T12:00:42;98711.81;;;-2.15;52.58
69955;BME280;57279;55.912;37.490;2023-03-01T12:25:31;98713.88;;;-2.04;51.87
69955;BME280;57279;55.912;37.490;2023-03-01T12:33:43;98721.25;;;-2.27;52.17
69955;BME280;57279;55.912;37.490;2023-03-01T12:49:45;98713.00;;;-1.83;52.82
69955;BME280;57279;55.912;37.490;2023-03-01T12:52:23;98716.28;;;-1.81;52.37
69955;BME280;57279;55.912;37.490;2023-03-01T12:54:56;98717.53;;;-1.77;52.72
69955;BME280;57279;55.912;37.490;2023-03-01T12:57:37;98723.13;;;-1.93;52.64
69955;BME280;57279;55.912;37.490;2023-03-01T13:00:45;98717.44;;;-1.90;52.30
69955;BME280;57279;55.912;37.490;2023-03-01T13:11:32;98713.47;;;-2.07;53.12
69955;BME280;57279;55.912;37.490;2023-03-01T13:16:50;98718.97;;;-2.37;53.43
69955;BME280;57279;55.912;37.490;2023-03-01T13:21:45;98712.03;;;-2.38;53.15
69955;BME280;57279;55.912;37.490;2023-03-01T13:29:47;98709.69;;;-2.54;53.87
69955;BME280;57279;55.912;37.490;2023-03-01T13:32:23;98710.69;;;-2.56;53.63
69955;BME280;57279;55.912;37.490;2023-03-01T13:34:57;98697.91;;;-2.52;53.44
69955;BME280;57279;55.912;37.490;2023-03-01T13:37:26;98705.16;;;-2.61;53.37
69955;BME280;57279;55.912;37.490;2023-03-01T13:39:52;98704.56;;;-2.56;53.29
69955;BME280;57279;55.912;37.490;2023-03-01T13:42:48;98699.19;;;-2.69;53.93
69955;BME280;57279;55.912;37.490;2023-03-01T13:45:19;98702.00;;;-2.71;52.72
69955;BME280;57279;55.912;37.490;2023-03-01T13:47:48;98691.63;;;-2.72;52.57
69955;BME280;57279;55.912;37.490;2023-03-01T13:50:27;98684.13;;;-2.69;52.82
69955;BME280;57279;55.912;37.490;2023-03-01T13:53:00;98685.53;;;-2.73;53.11
69955;BME280;57279;55.912;37.490;2023-03-01T13:55:41;98684.88;;;-2.53;53.78
69955;BME280;57279;55.912;37.490;2023-03-01T13:58:23;98685.25;;;-2.57;54.04
69955;BME280;57279;55.912;37.490;2023-03-01T14:01:05;98682.72;;;-2.43;54.53
69955;BME280;57279;55.912;37.490;2023-03-01T14:03:32;98679.25;;;-2.72;53.52
69955;BME280;57279;55.912;37.490;2023-03-01T14:06:05;98671.94;;;-2.91;53.93
69955;BME280;57279;55.912;37.490;2023-03-01T14:08:32;98666.84;;;-2.71;54.43
69955;BME280;57279;55.912;37.490;2023-03-01T14:14:40;98660.25;;;-2.82;54.94
69955;BME280;57279;55.912;37.490;2023-03-01T14:19:33;98656.66;;;-2.75;55.02
69955;BME280;57279;55.912;37.490;2023-03-01T14:24:28;98654.72;;;-2.87;55.69
69955;BME280;57279;55.912;37.490;2023-03-01T14:26:54;98653.19;;;-2.75;55.63
69955;BME280;57279;55.912;37.490;2023-03-01T14:29:35;98653.28;;;-2.90;55.72
69955;BME280;57279;55.912;37.490;2023-03-01T14:32:19;98647.09;;;-2.97;56.30
69955;BME280;57279;55.912;37.490;2023-03-01T14:34:46;98644.28;;;-2.96;56.50
69955;BME280;57279;55.912;37.490;2023-03-01T14:39:45;98641.19;;;-2.99;56.65
69955;BME280;57279;55.912;37.490;2023-03-01T14:42:12;98642.16;;;-2.85;57.20
69955;BME280;57279;55.912;37.490;2023-03-01T14:44:42;98641.38;;;-2.79;56.74
69955;BME280;57279;55.912;37.490;2023-03-01T14:47:14;98636.25;;;-2.87;56.89
69955;BME280;57279;55.912;37.490;2023-03-01T14:49:41;98631.69;;;-2.72;56.53
69955;BME280;57279;55.912;37.490;2023-03-01T14:52:20;98637.06;;;-2.59;57.08
69955;BME280;57279;55.912;37.490;2023-03-01T14:54:49;98630.66;;;-2.71;56.99